createdAt,value
2023-05-10T00:04:46.954Z,14.73
2023-05-10T00:07:13.555Z,14.78
2023-05-10T00:09:40.231Z,14.79
2023-05-10T00:12:07.052Z,14.82
2023-05-10T00:14:33.679Z,14.64
2023-05-10T00:17:00.394Z,14.72
2023-05-10T00:19:27.067Z,14.52
2023-05-10T00:21:53.807Z,14.51
2023-05-10T00:24:20.444Z,14.35
2023-05-10T00:26:47.254Z,14.21
2023-05-10T00:29:13.971Z,14.19
2023-05-10T00:31:40.680Z,14.12
2023-05-10T00:34:07.327Z,14.12
2023-05-10T00:36:34.039Z,14.02
2023-05-10T00:39:01.020Z,14.02
2023-05-10T00:41:27.729Z,13.91
2023-05-10T00:43:54.397Z,13.76
2023-05-10T00:46:21.692Z,13.83
2023-05-10T00:48:48.710Z,13.89
2023-05-10T00:51:15.510Z,13.80
2023-05-10T00:53:42.277Z,13.81
2023-05-10T00:56:09.040Z,13.82
2023-05-10T01:01:08.078Z,13.72
2023-05-10T01:06:09.118Z,13.74
2023-05-10T01:11:13.215Z,13.60
2023-05-10T01:13:43.651Z,13.72
2023-05-10T01:16:10.501Z,13.57
2023-05-10T01:18:42.756Z,13.54
2023-05-10T01:21:30.905Z,13.48
2023-05-10T01:24:28.737Z,13.47
2023-05-10T01:27:21.332Z,13.53
2023-05-10T01:30:09.507Z,13.56
2023-05-10T01:32:57.422Z,13.52
2023-05-10T01:38:23.952Z,13.48
2023-05-10T01:41:16.002Z,13.37
2023-05-10T01:46:38.268Z,13.34
2023-05-10T01:49:10.303Z,13.40
2023-05-10T01:51:43.512Z,13.31
2023-05-10T01:54:12.659Z,13.26
2023-05-10T01:56:41.751Z,13.38
2023-05-10T01:59:14.231Z,13.38
2023-05-10T02:01:41.644Z,13.36
2023-05-10T02:04:10.766Z,13.34
2023-05-10T02:06:39.619Z,13.33
2023-05-10T02:09:07.791Z,13.40
2023-05-10T02:11:34.724Z,13.36
2023-05-10T02:14:01.596Z,13.36
2023-05-10T02:16:32.083Z,13.36
2023-05-10T02:19:00.938Z,13.41
2023-05-10T02:21:29.194Z,13.44
2023-05-10T02:23:56.942Z,13.36
2023-05-10T02:26:26.410Z,13.43
2023-05-10T02:28:54.814Z,13.46
2023-05-10T02:31:22.980Z,13.42
2023-05-10T02:33:50.496Z,13.33
2023-05-10T02:36:17.980Z,13.42
2023-05-10T02:38:46.793Z,13.40
2023-05-10T02:41:14.328Z,13.40
2023-05-10T02:43:41.933Z,13.57
2023-05-10T02:46:08.604Z,13.49
2023-05-10T02:48:35.364Z,13.46
2023-05-10T02:51:06.381Z,13.54
2023-05-10T02:53:36.730Z,13.50
2023-05-10T02:56:10.611Z,13.40
2023-05-10T02:58:37.317Z,13.41
2023-05-10T03:01:04.314Z,13.41
2023-05-10T03:03:30.962Z,13.41
2023-05-10T03:05:57.844Z,13.46
2023-05-10T03:08:24.887Z,13.44
2023-05-10T03:11:06.688Z,13.44
2023-05-10T03:13:41.191Z,13.41
2023-05-10T03:16:13.899Z,13.40
2023-05-10T03:21:26.062Z,13.52
2023-05-10T03:24:00.957Z,13.52
2023-05-10T03:26:29.490Z,13.51
2023-05-10T03:28:58.291Z,13.55
2023-05-10T03:31:25.274Z,13.51
2023-05-10T03:33:53.728Z,13.49
2023-05-10T03:36:20.691Z,13.48
2023-05-10T03:38:47.384Z,13.49
2023-05-10T03:41:14.102Z,13.50
2023-05-10T03:43:40.973Z,13.56
2023-05-10T03:48:41.094Z,13.56
2023-05-10T03:51:07.859Z,13.58
2023-05-10T03:53:34.527Z,13.57
2023-05-10T03:56:01.263Z,13.54
2023-05-10T03:58:28.157Z,13.56
2023-05-10T04:00:54.864Z,13.57
2023-05-10T04:03:21.717Z,13.55
2023-05-10T04:05:48.543Z,13.49
2023-05-10T04:08:17.529Z,13.48
2023-05-10T04:10:44.682Z,13.56
2023-05-10T04:13:12.561Z,13.61
2023-05-10T04:15:39.241Z,13.64
2023-05-10T04:18:07.989Z,13.65
2023-05-10T04:20:35.481Z,13.61
2023-05-10T04:23:02.174Z,13.64
2023-05-10T04:25:28.799Z,13.64
2023-05-10T04:27:55.438Z,13.64
2023-05-10T04:30:22.080Z,13.65
2023-05-10T04:35:22.655Z,13.62
2023-05-10T04:37:49.320Z,13.65
2023-05-10T04:40:16.265Z,13.77
2023-05-10T04:42:43.203Z,13.76
2023-05-10T04:45:10.942Z,13.85
2023-05-10T04:47:38.351Z,13.89
2023-05-10T04:50:05.775Z,13.90
2023-05-10T04:52:32.414Z,13.91
2023-05-10T04:54:59.090Z,13.88
2023-05-10T04:57:25.817Z,13.95
2023-05-10T04:59:52.542Z,13.88
2023-05-10T05:02:19.184Z,13.84
2023-05-10T05:04:45.779Z,13.99
2023-05-10T05:09:44.680Z,13.98
2023-05-10T05:12:15.376Z,13.92
2023-05-10T05:14:42.468Z,13.97
2023-05-10T05:17:09.367Z,13.93
2023-05-10T05:19:36.863Z,13.99
2023-05-10T05:22:03.486Z,13.97
2023-05-10T05:27:07.802Z,14.08
2023-05-10T05:29:34.629Z,14.10
2023-05-10T05:32:01.370Z,14.12
2023-05-10T05:34:28.204Z,14.23
2023-05-10T05:36:55.319Z,14.20
2023-05-10T05:39:21.988Z,14.31
2023-05-10T05:41:48.629Z,14.24
2023-05-10T05:44:15.275Z,14.32
2023-05-10T05:46:41.895Z,14.39
2023-05-10T05:49:08.523Z,14.42
2023-05-10T05:51:36.840Z,14.44
2023-05-10T05:54:05.451Z,14.39
2023-05-10T05:56:32.122Z,14.42
2023-05-10T05:58:58.793Z,14.44
2023-05-10T06:01:25.426Z,14.40
2023-05-10T06:03:53.467Z,14.39
2023-05-10T06:06:20.333Z,14.43
2023-05-10T06:08:47.041Z,14.45
2023-05-10T06:11:13.728Z,14.46
2023-05-10T06:13:40.492Z,14.53
2023-05-10T06:16:07.594Z,14.55
2023-05-10T06:18:34.340Z,14.53
2023-05-10T06:21:01.067Z,14.65
2023-05-10T06:23:27.713Z,14.55
2023-05-10T06:25:54.338Z,14.48
2023-05-10T06:28:21.137Z,14.47
2023-05-10T06:30:47.770Z,14.49
2023-05-10T06:33:14.486Z,14.55
2023-05-10T06:35:41.181Z,14.54
2023-05-10T06:38:07.826Z,14.56
2023-05-10T06:40:34.493Z,14.54
2023-05-10T06:43:01.135Z,14.42
2023-05-10T06:45:27.845Z,14.43
2023-05-10T06:47:54.564Z,14.50
2023-05-10T06:50:21.739Z,14.40
2023-05-10T06:52:48.505Z,14.48
2023-05-10T06:55:15.288Z,14.57
2023-05-10T06:57:42.077Z,14.59
2023-05-10T07:00:10.834Z,14.60
2023-05-10T07:02:37.727Z,14.66
2023-05-10T07:05:04.682Z,14.80
2023-05-10T07:10:03.002Z,14.94
2023-05-10T07:12:29.776Z,15.12
2023-05-10T07:14:56.603Z,15.18
2023-05-10T07:17:23.318Z,15.09
2023-05-10T07:19:50.206Z,15.07
2023-05-10T07:22:17.929Z,15.12
2023-05-10T07:24:45.750Z,15.03
2023-05-10T07:27:12.506Z,15.07
2023-05-10T07:29:39.129Z,15.04
2023-05-10T07:32:06.994Z,15.22
2023-05-10T07:34:33.697Z,15.32
2023-05-10T07:37:00.662Z,15.36
2023-05-10T07:39:28.480Z,15.30
2023-05-10T07:41:56.354Z,15.31
2023-05-10T07:44:23.366Z,15.27
2023-05-10T07:46:50.287Z,15.18
2023-05-10T07:49:17.258Z,15.37
2023-05-10T07:51:43.897Z,15.41
2023-05-10T07:54:10.626Z,15.58
2023-05-10T07:56:37.439Z,15.68
2023-05-10T07:59:09.374Z,15.86
2023-05-10T08:01:37.438Z,15.85
2023-05-10T08:04:04.301Z,15.68
2023-05-10T08:06:31.403Z,15.83
2023-05-10T08:08:58.684Z,15.67
2023-05-10T08:11:26.012Z,15.75
2023-05-10T08:13:53.029Z,15.64
2023-05-10T08:16:20.070Z,15.72
2023-05-10T08:18:48.477Z,15.71
2023-05-10T08:21:16.045Z,15.72
2023-05-10T08:23:45.086Z,15.58
2023-05-10T08:26:12.249Z,15.70
2023-05-10T08:28:39.008Z,15.72
2023-05-10T08:31:06.286Z,15.64
2023-05-10T08:33:33.071Z,15.53
2023-05-10T08:35:59.760Z,15.55
2023-05-10T08:38:27.064Z,15.39
2023-05-10T08:40:58.150Z,15.57
2023-05-10T08:43:30.409Z,15.64
2023-05-10T08:45:57.989Z,15.59
2023-05-10T08:48:26.222Z,15.57
2023-05-10T08:50:57.798Z,15.70
2023-05-10T08:53:27.815Z,15.65
2023-05-10T08:55:54.626Z,15.67
2023-05-10T08:58:21.534Z,15.70
2023-05-10T09:00:49.926Z,15.64
2023-05-10T09:03:16.830Z,15.57
2023-05-10T09:08:16.933Z,15.71
2023-05-10T09:10:45.024Z,15.52
2023-05-10T09:13:12.833Z,15.66
2023-05-10T09:15:39.836Z,15.79
2023-05-10T09:18:06.629Z,15.95
2023-05-10T09:20:33.439Z,16.30
2023-05-10T09:23:00.297Z,16.35
2023-05-10T09:25:26.960Z,16.39
2023-05-10T09:27:54.280Z,16.64
2023-05-10T09:30:27.985Z,16.64
2023-05-10T09:32:55.925Z,16.86
2023-05-10T09:35:27.068Z,16.80
2023-05-10T09:37:57.270Z,16.76
2023-05-10T09:40:26.511Z,16.80
2023-05-10T09:43:03.677Z,16.95
2023-05-10T09:45:32.170Z,16.97
2023-05-10T09:48:00.334Z,17.07
2023-05-10T09:50:28.556Z,16.98
2023-05-10T09:53:01.030Z,16.96
2023-05-10T09:55:47.706Z,16.77
2023-05-10T09:58:15.375Z,17.02
2023-05-10T10:03:20.751Z,17.25
2023-05-10T10:05:49.062Z,17.29
2023-05-10T10:08:16.893Z,17.83
2023-05-10T10:10:47.067Z,17.76
2023-05-10T10:13:14.475Z,17.02
2023-05-10T10:15:41.531Z,16.71
2023-05-10T10:20:49.710Z,16.88
2023-05-10T10:23:17.757Z,16.75
2023-05-10T10:25:46.042Z,16.70
2023-05-10T10:28:42.711Z,16.64
2023-05-10T10:31:27.684Z,16.50
2023-05-10T10:34:04.864Z,16.24
2023-05-10T10:36:31.638Z,16.30
2023-05-10T10:39:02.664Z,16.55
2023-05-10T10:41:50.033Z,16.67
2023-05-10T10:44:26.214Z,16.60
2023-05-10T10:47:12.927Z,16.83
2023-05-10T10:49:42.749Z,17.01
2023-05-10T10:52:34.120Z,16.72
2023-05-10T10:55:10.467Z,16.56
2023-05-10T10:58:02.048Z,16.54
2023-05-10T11:00:33.131Z,16.60
2023-05-10T11:03:15.925Z,16.64
2023-05-10T11:08:27.574Z,17.02
2023-05-10T11:11:00.009Z,17.24
2023-05-10T11:13:40.087Z,17.43
2023-05-10T11:16:22.913Z,17.33
2023-05-10T11:19:05.693Z,17.26
2023-05-10T11:21:34.025Z,17.32
2023-05-10T11:24:07.094Z,17.09
2023-05-10T11:26:36.342Z,16.97
2023-05-10T11:29:04.316Z,16.86
2023-05-10T11:31:31.209Z,16.92
2023-05-10T11:34:00.278Z,16.67
2023-05-10T11:36:37.231Z,16.91
2023-05-10T11:39:05.048Z,16.71
2023-05-10T11:41:32.506Z,16.81
2023-05-10T11:44:00.125Z,16.76
2023-05-10T11:46:28.766Z,16.86
2023-05-10T11:48:58.956Z,16.76
2023-05-10T11:51:26.415Z,16.78
2023-05-10T11:53:57.609Z,16.74
2023-05-10T11:56:24.767Z,16.80
2023-05-10T11:58:57.055Z,16.76
2023-05-10T12:01:25.236Z,16.78
2023-05-10T12:03:53.869Z,16.88
2023-05-10T12:06:21.793Z,16.63
2023-05-10T12:08:53.661Z,16.54
2023-05-10T12:11:22.146Z,16.36
2023-05-10T12:16:23.070Z,16.23
2023-05-10T12:18:52.260Z,16.22
2023-05-10T12:21:21.143Z,16.17
2023-05-10T12:23:50.995Z,16.08
2023-05-10T12:26:18.322Z,16.34
2023-05-10T12:28:45.627Z,16.24
2023-05-10T12:31:12.351Z,16.15
2023-05-10T12:33:44.205Z,16.21
2023-05-10T12:36:12.334Z,16.15
2023-05-10T12:41:14.724Z,16.32
2023-05-10T12:43:42.006Z,16.26
2023-05-10T12:46:13.801Z,16.28
2023-05-10T12:48:41.846Z,16.43
2023-05-10T12:51:13.431Z,16.41
2023-05-10T12:53:42.772Z,16.50
2023-05-10T12:58:42.302Z,16.50
2023-05-10T13:01:09.668Z,16.50
2023-05-10T13:03:36.454Z,16.52
2023-05-10T13:06:03.608Z,16.55
2023-05-10T13:08:34.658Z,16.62
2023-05-10T13:11:02.434Z,16.76
2023-05-10T13:13:29.172Z,16.91
2023-05-10T13:15:55.739Z,16.94
2023-05-10T13:18:22.448Z,17.00
2023-05-10T13:20:50.752Z,17.00
2023-05-10T13:23:17.392Z,16.80
2023-05-10T13:25:44.023Z,16.87
2023-05-10T13:28:10.685Z,16.77
2023-05-10T13:30:37.394Z,16.63
2023-05-10T13:33:04.126Z,16.46
2023-05-10T13:35:30.795Z,16.49
2023-05-10T13:37:58.841Z,16.45
2023-05-10T13:40:25.508Z,16.46
2023-05-10T13:42:52.146Z,16.41
2023-05-10T13:45:19.140Z,16.34
2023-05-10T13:50:19.716Z,16.24
2023-05-10T13:52:46.504Z,16.25
2023-05-10T13:55:14.468Z,16.28
2023-05-10T13:57:41.183Z,16.48
2023-05-10T14:00:08.877Z,16.60
2023-05-10T14:02:35.704Z,16.78
2023-05-10T14:05:02.574Z,16.67
2023-05-10T14:07:29.284Z,16.88
2023-05-10T14:12:29.419Z,16.96
2023-05-10T14:14:56.067Z,16.96
2023-05-10T14:17:23.570Z,16.85
2023-05-10T14:19:50.293Z,16.77
2023-05-10T14:22:17.142Z,16.73
2023-05-10T14:24:47.872Z,16.81
2023-05-10T14:27:14.742Z,16.83
2023-05-10T14:32:12.722Z,16.72
2023-05-10T14:34:39.838Z,16.59
2023-05-10T14:37:06.474Z,16.80
2023-05-10T14:39:34.338Z,16.85
2023-05-10T14:42:00.985Z,16.76
2023-05-10T14:44:27.685Z,16.92
2023-05-10T14:46:54.322Z,16.96
2023-05-10T14:49:23.987Z,16.91
2023-05-10T14:51:50.704Z,16.85
2023-05-10T14:54:17.343Z,16.93
2023-05-10T14:56:44.131Z,17.03
2023-05-10T14:59:10.863Z,16.97
2023-05-10T15:01:39.068Z,16.86
2023-05-10T15:04:06.342Z,16.72
2023-05-10T15:06:35.002Z,16.71
2023-05-10T15:09:02.769Z,16.64
2023-05-10T15:11:30.135Z,16.74
2023-05-10T15:13:56.905Z,16.80
2023-05-10T15:16:23.680Z,16.78
2023-05-10T15:18:50.484Z,16.64
2023-05-10T15:21:17.284Z,16.78
2023-05-10T15:23:43.983Z,16.74
2023-05-10T15:26:10.611Z,16.77
2023-05-10T15:28:37.293Z,16.72
2023-05-10T15:31:04.293Z,16.68
2023-05-10T15:33:30.957Z,16.67
2023-05-10T15:38:35.657Z,16.65
2023-05-10T15:41:02.540Z,16.69
2023-05-10T15:43:29.548Z,16.81
2023-05-10T15:45:56.532Z,16.92
2023-05-10T15:48:23.212Z,16.79
2023-05-10T15:50:49.931Z,16.83
2023-05-10T15:53:16.603Z,16.85
2023-05-10T15:55:44.128Z,16.85
2023-05-10T15:58:11.508Z,16.71
2023-05-10T16:00:39.296Z,16.74
2023-05-10T16:03:06.867Z,16.85
2023-05-10T16:05:33.897Z,16.89
2023-05-10T16:08:01.960Z,16.80
2023-05-10T16:10:31.895Z,16.72
2023-05-10T16:15:36.882Z,16.74
2023-05-10T16:18:03.890Z,16.71
2023-05-10T16:20:30.897Z,16.62
2023-05-10T16:22:57.748Z,16.60
2023-05-10T16:25:24.354Z,16.49
2023-05-10T16:27:51.350Z,16.54
2023-05-10T16:30:17.980Z,16.53
2023-05-10T16:32:44.693Z,16.48
2023-05-10T16:35:11.422Z,16.50
2023-05-10T16:37:38.201Z,16.53
2023-05-10T16:40:05.592Z,16.47
2023-05-10T16:45:07.910Z,16.45
2023-05-10T16:47:36.517Z,16.40
2023-05-10T16:50:04.741Z,16.45
2023-05-10T16:52:33.347Z,16.32
2023-05-10T16:55:00.165Z,16.32
2023-05-10T16:57:27.465Z,16.35
2023-05-10T16:59:54.249Z,16.29
2023-05-10T17:02:21.676Z,16.22
2023-05-10T17:04:48.838Z,16.17
2023-05-10T17:07:16.225Z,16.21
2023-05-10T17:09:44.250Z,16.15
2023-05-10T17:12:11.124Z,16.12
2023-05-10T17:14:38.408Z,16.09
2023-05-10T17:17:05.053Z,16.08
2023-05-10T17:19:31.826Z,15.95
2023-05-10T17:21:58.578Z,16.01
2023-05-10T17:24:25.359Z,15.99
2023-05-10T17:26:51.971Z,15.94
2023-05-10T17:29:18.623Z,15.96
2023-05-10T17:31:45.240Z,15.89
2023-05-10T17:34:11.935Z,15.87
2023-05-10T17:36:38.609Z,15.85
2023-05-10T17:39:05.476Z,15.74
2023-05-10T17:41:32.106Z,15.78
2023-05-10T17:43:58.770Z,15.79
2023-05-10T17:46:25.573Z,15.85
2023-05-10T17:48:52.411Z,15.89
2023-05-10T17:51:20.538Z,15.89
2023-05-10T17:53:47.208Z,15.65
2023-05-10T17:56:13.862Z,15.64
2023-05-10T17:58:40.714Z,15.66
2023-05-10T18:01:07.683Z,15.80
2023-05-10T18:03:36.118Z,15.67
2023-05-10T18:06:04.559Z,15.63
2023-05-10T18:08:31.419Z,15.61
2023-05-10T18:10:58.094Z,15.55
2023-05-10T18:13:25.786Z,15.52
2023-05-10T18:15:52.575Z,15.52
2023-05-10T18:18:19.269Z,15.51
2023-05-10T18:20:46.640Z,15.42
2023-05-10T18:23:14.379Z,15.44
2023-05-10T18:25:41.002Z,15.51
2023-05-10T18:28:08.474Z,15.48
2023-05-10T18:30:35.384Z,15.53
2023-05-10T18:33:02.357Z,15.37
2023-05-10T18:35:29.162Z,15.40
2023-05-10T18:37:56.374Z,15.30
2023-05-10T18:40:23.002Z,15.38
2023-05-10T18:42:50.780Z,15.23
2023-05-10T18:45:17.805Z,15.25
2023-05-10T18:47:44.710Z,15.18
2023-05-10T18:50:12.174Z,15.21
2023-05-10T18:55:12.929Z,15.17
2023-05-10T18:57:41.866Z,15.07
2023-05-10T19:00:11.215Z,15.08
2023-05-10T19:02:41.645Z,15.05
2023-05-10T19:05:08.814Z,14.96
2023-05-10T19:07:35.840Z,14.99
2023-05-10T19:10:02.965Z,14.93
2023-05-10T19:12:29.665Z,14.89
2023-05-10T19:14:56.290Z,14.83
2023-05-10T19:17:23.046Z,14.86
2023-05-10T19:19:49.774Z,14.69
2023-05-10T19:22:16.517Z,14.74
2023-05-10T19:24:44.691Z,14.79
2023-05-10T19:27:12.002Z,14.63
2023-05-10T19:29:38.743Z,14.66
2023-05-10T19:32:05.992Z,14.43
2023-05-10T19:34:32.668Z,14.32
2023-05-10T19:36:59.301Z,14.42
2023-05-10T19:39:26.969Z,14.52
2023-05-10T19:41:53.892Z,14.41
2023-05-10T19:44:20.614Z,14.41
2023-05-10T19:46:47.376Z,14.28
2023-05-10T19:49:14.162Z,14.23
2023-05-10T19:51:41.457Z,14.29
2023-05-10T19:54:08.594Z,14.13
2023-05-10T19:56:35.243Z,14.12
2023-05-10T19:59:03.660Z,13.98
2023-05-10T20:01:30.453Z,13.99
2023-05-10T20:06:29.149Z,13.99
2023-05-10T20:08:56.160Z,14.08
2023-05-10T20:11:22.911Z,13.93
2023-05-10T20:13:49.615Z,13.70
2023-05-10T20:16:17.036Z,13.77
2023-05-10T20:18:45.186Z,13.67
2023-05-10T20:21:11.994Z,13.68
2023-05-10T20:23:38.841Z,13.72
2023-05-10T20:26:05.497Z,13.65
2023-05-10T20:28:32.204Z,13.54
2023-05-10T20:33:36.169Z,13.53
2023-05-10T20:36:02.916Z,13.58
2023-05-10T20:38:29.590Z,13.57
2023-05-10T20:40:56.247Z,13.62
2023-05-10T20:43:22.865Z,13.81
2023-05-10T20:45:49.773Z,13.76
2023-05-10T20:48:17.774Z,13.78
2023-05-10T20:50:44.490Z,13.53
2023-05-10T20:53:11.161Z,13.45
2023-05-10T20:55:38.169Z,13.57
2023-05-10T20:58:05.284Z,13.51
2023-05-10T21:00:32.198Z,13.50
2023-05-10T21:02:58.971Z,13.55
2023-05-10T21:05:25.967Z,13.51
2023-05-10T21:10:32.700Z,13.65
2023-05-10T21:12:59.376Z,13.60
2023-05-10T21:15:26.189Z,13.57
2023-05-10T21:17:54.160Z,13.60
2023-05-10T21:20:20.937Z,13.56
2023-05-10T21:22:47.651Z,13.45
2023-05-10T21:25:14.403Z,13.61
2023-05-10T21:27:41.054Z,13.60
2023-05-10T21:30:08.350Z,13.54
2023-05-10T21:32:36.217Z,13.68
2023-05-10T21:35:03.222Z,13.61
2023-05-10T21:37:29.996Z,13.51
2023-05-10T21:39:56.646Z,13.57
2023-05-10T21:42:23.409Z,13.59
2023-05-10T21:44:50.201Z,13.70
2023-05-10T21:47:17.485Z,13.57
2023-05-10T21:52:17.612Z,13.59
2023-05-10T21:54:44.395Z,13.53
2023-05-10T21:59:44.550Z,13.43
2023-05-10T22:02:11.248Z,13.37
2023-05-10T22:04:37.949Z,13.45
2023-05-10T22:07:04.609Z,13.17
2023-05-10T22:09:31.290Z,13.10
2023-05-10T22:11:57.981Z,13.13
2023-05-10T22:14:24.652Z,13.12
2023-05-10T22:16:51.326Z,13.22
2023-05-10T22:19:18.047Z,13.31
2023-05-10T22:21:44.680Z,13.19
2023-05-10T22:24:11.357Z,13.21
2023-05-10T22:26:37.990Z,13.26
2023-05-10T22:29:04.675Z,13.20
2023-05-10T22:31:31.724Z,13.23
2023-05-10T22:33:58.596Z,13.10
2023-05-10T22:36:25.291Z,13.18
2023-05-10T22:38:51.931Z,13.07
2023-05-10T22:41:18.617Z,12.90
2023-05-10T22:43:45.805Z,12.96
2023-05-10T22:46:12.521Z,13.08
2023-05-10T22:48:39.604Z,12.78
2023-05-10T22:51:06.359Z,12.85
2023-05-10T22:53:32.999Z,12.88
2023-05-10T22:55:59.703Z,12.82
2023-05-10T23:11:34.369Z,12.72
2023-05-10T23:14:01.162Z,12.68
2023-05-10T23:16:27.912Z,12.74
2023-05-10T23:18:55.077Z,12.79
2023-05-10T23:21:21.851Z,12.74
2023-05-10T23:23:48.913Z,12.67
2023-05-10T23:26:15.716Z,12.76
2023-05-10T23:28:42.405Z,12.77
2023-05-10T23:31:09.196Z,12.83
2023-05-10T23:33:35.920Z,12.78
2023-05-10T23:36:02.580Z,12.57
2023-05-10T23:38:29.216Z,12.70
2023-05-10T23:40:55.898Z,12.63
2023-05-10T23:43:22.880Z,12.63
2023-05-10T23:45:57.155Z,12.58
2023-05-10T23:50:55.845Z,12.60
2023-05-10T23:55:54.199Z,12.69
2023-05-10T23:58:21.467Z,12.53
